Time;durP1;ratioP1;P1;durP2;ratioP2;P2;SDS_P1;SDS_P2;PMS_P1;PMS_P2;Temp;Humidity;BMP_temperature;BMP_pressure;BME280_temperature;BME280_humidity;BME280_pressure;Samples;Min_cycle;Max_cycle;Signal;HPM_P1;HPM_P2
2021/12/23 00:00:49;;;;;;;6.28;3.20;;;22.50;35.30;;;;;;5014240;28;20053;-60
2021/12/23 00:03:14;;;;;;;6.55;4.00;;;22.50;35.40;;;;;;5013585;28;20487;-61
2021/12/23 00:05:40;;;;;;;7.28;3.78;;;22.50;35.30;;;;;;5017166;28;20052;-61
2021/12/23 00:08:05;;;;;;;6.10;3.47;;;22.50;35.30;;;;;;5010287;28;20434;-61
2021/12/23 00:10:31;;;;;;;7.57;3.90;;;22.50;35.40;;;;;;5014407;28;20179;-61
2021/12/23 00:12:57;;;;;;;3.88;3.47;;;22.40;35.30;;;;;;5013786;28;20056;-61
2021/12/23 00:15:36;;;;;;;5.85;3.58;;;22.40;35.50;;;;;;5016403;28;20096;-60
2021/12/23 00:23:26;;;;;;;4.05;3.53;;;22.30;35.30;;;;;;5012287;28;20064;-60
2021/12/23 00:25:56;;;;;;;10.88;3.60;;;22.30;35.40;;;;;;5014191;28;20657;-61
2021/12/23 00:28:23;;;;;;;6.23;4.00;;;22.30;35.30;;;;;;5014024;28;20049;-61
2021/12/23 00:30:48;;;;;;;5.15;3.70;;;22.30;35.40;;;;;;5013822;28;20033;-60
2021/12/23 00:33:14;;;;;;;5.95;3.40;;;22.30;35.30;;;;;;5013129;28;20051;-61
2021/12/23 00:35:40;;;;;;;4.00;3.33;;;22.20;35.30;;;;;;5012935;28;20478;-61
2021/12/23 00:38:14;;;;;;;3.90;3.50;;;22.20;35.40;;;;;;5009525;28;23543;-60
2021/12/23 00:40:40;;;;;;;7.20;4.03;;;22.20;35.30;;;;;;5015067;28;20053;-61
2021/12/23 00:43:05;;;;;;;3.58;3.28;;;22.20;35.30;;;;;;5014210;28;20033;-60
2021/12/23 00:45:31;;;;;;;4.53;3.72;;;22.20;35.30;;;;;;5011931;28;20528;-61
2021/12/23 00:47:56;;;;;;;4.75;3.25;;;22.10;35.20;;;;;;5013237;28;20106;-61
2021/12/23 00:50:22;;;;;;;4.18;3.80;;;22.10;35.30;;;;;;5012191;28;20054;-61
2021/12/23 00:52:55;;;;;;;4.88;3.60;;;22.10;35.30;;;;;;5011343;28;32990;-60
2021/12/23 00:55:22;;;;;;;3.75;3.25;;;22.10;35.30;;;;;;5014456;28;20048;-60
2021/12/23 00:57:47;;;;;;;3.65;3.15;;;22.10;35.40;;;;;;5016474;28;20459;-60
2021/12/23 01:00:16;;;;;;;5.82;3.65;;;22.10;35.30;;;;;;5014666;28;20052;-60
2021/12/23 01:02:45;;;;;;;7.30;4.00;;;22.10;35.30;;;;;;5013141;28;20408;-61
2021/12/23 01:05:13;;;;;;;4.07;3.45;;;22.10;35.30;;;;;;5013139;28;20046;-60
2021/12/23 01:07:39;;;;;;;4.15;3.25;;;22.00;35.30;;;;;;5016197;28;21033;-61
2021/12/23 01:10:06;;;;;;;5.13;3.70;;;22.00;35.40;;;;;;5014172;28;20041;-61
2021/12/23 01:12:38;;;;;;;4.30;3.78;;;22.00;35.30;;;;;;5013410;28;20479;-60
2021/12/23 01:18:06;;;;;;;3.42;3.13;;;21.90;35.20;;;;;;5017889;28;20063;-61
2021/12/23 01:20:35;;;;;;;3.80;3.38;;;21.90;35.30;;;;;;5012496;28;23449;-60
2021/12/23 01:23:05;;;;;;;4.82;3.80;;;21.90;35.30;;;;;;5017201;28;20050;-60
2021/12/23 01:25:32;;;;;;;5.95;3.40;;;21.90;35.40;;;;;;5016525;28;20836;-59
2021/12/23 01:27:58;;;;;;;3.80;3.50;;;21.90;35.60;;;;;;5015647;28;20185;-60
2021/12/23 01:30:25;;;;;;;3.78;3.40;;;21.90;35.50;;;;;;5015926;28;20336;-61
2021/12/23 01:32:54;;;;;;;4.97;3.53;;;21.90;35.50;;;;;;5017410;28;20073;-61
2021/12/23 01:35:20;;;;;;;3.78;3.38;;;21.80;35.50;;;;;;5014022;28;33516;-61
2021/12/23 01:37:46;;;;;;;7.45;3.42;;;21.80;35.60;;;;;;5018439;28;20141;-60
2021/12/23 01:40:13;;;;;;;3.60;3.30;;;21.80;35.60;;;;;;5014322;28;20489;-60
2021/12/23 01:42:39;;;;;;;3.72;3.42;;;21.80;35.60;;;;;;5018536;28;20572;-61
2021/12/23 01:45:14;;;;;;;3.75;3.38;;;21.80;35.70;;;;;;5017672;28;20129;-61
2021/12/23 01:47:40;;;;;;;4.25;3.80;;;21.80;35.70;;;;;;5031375;28;20104;-61
2021/12/23 01:50:08;;;;;;;3.95;3.47;;;21.70;35.60;;;;;;5014776;28;33774;-60
2021/12/23 01:52:34;;;;;;;3.83;3.53;;;21.70;35.60;;;;;;5019216;28;20083;-60
2021/12/23 01:55:00;;;;;;;3.97;3.55;;;21.70;35.60;;;;;;5016616;28;20486;-60
2021/12/23 01:57:29;;;;;;;4.20;3.80;;;21.70;35.60;;;;;;5018193;28;20030;-60
2021/12/23 01:59:55;;;;;;;4.05;3.65;;;21.70;35.70;;;;;;5017036;28;20040;-60
2021/12/23 02:02:20;;;;;;;4.00;3.42;;;21.70;35.70;;;;;;5013910;28;20039;-60
2021/12/23 02:04:46;;;;;;;3.85;3.55;;;21.70;35.70;;;;;;5013896;28;30891;-61
2021/12/23 02:07:13;;;;;;;4.00;3.65;;;21.60;35.70;;;;;;5015589;28;20046;-59
2021/12/23 02:09:38;;;;;;;3.58;3.28;;;21.60;35.70;;;;;;5017116;28;20038;-60
2021/12/23 02:12:04;;;;;;;3.90;3.60;;;21.60;35.70;;;;;;5014326;28;20038;-60
2021/12/23 02:14:30;;;;;;;3.80;3.50;;;21.60;35.70;;;;;;5015782;28;20062;-60
2021/12/23 02:16:55;;;;;;;4.15;3.72;;;21.60;35.70;;;;;;5014283;28;30862;-61
2021/12/23 02:19:21;;;;;;;4.00;3.70;;;21.60;35.70;;;;;;5015327;28;20042;-61
2021/12/23 02:21:47;;;;;;;3.83;3.53;;;21.50;35.70;;;;;;5015524;28;20041;-60
2021/12/23 02:24:14;;;;;;;4.00;3.58;;;21.50;35.60;;;;;;5018486;28;20104;-60
2021/12/23 02:26:41;;;;;;;4.32;3.63;;;21.50;35.70;;;;;;5012046;28;20033;-60
2021/12/23 02:29:08;;;;;;;4.13;3.72;;;21.50;35.70;;;;;;5015807;28;20045;-61
2021/12/23 02:31:34;;;;;;;3.60;3.30;;;21.50;35.60;;;;;;5013485;28;33415;-60
2021/12/23 02:34:00;;;;;;;4.25;3.85;;;21.50;35.70;;;;;;5015888;28;20049;-60
2021/12/23 02:36:26;;;;;;;4.35;3.60;;;21.50;35.70;;;;;;5015178;28;20472;-60
2021/12/23 02:38:53;;;;;;;4.05;3.65;;;21.50;35.70;;;;;;5014772;28;20064;-60
2021/12/23 02:41:19;;;;;;;4.85;3.78;;;21.50;35.80;;;;;;5013990;28;20052;-60
2021/12/23 02:43:45;;;;;;;4.28;3.83;;;21.40;35.70;;;;;;5014826;28;20529;-60
2021/12/23 02:46:11;;;;;;;4.32;3.92;;;21.40;35.70;;;;;;5015240;28;20040;-60
2021/12/23 02:48:37;;;;;;;3.92;3.63;;;21.40;35.70;;;;;;5015668;28;20868;-61
2021/12/23 02:51:10;;;;;;;4.28;3.88;;;21.40;35.70;;;;;;5015110;28;20047;-60
2021/12/23 02:53:37;;;;;;;3.80;3.50;;;21.40;35.70;;;;;;5014368;28;20045;-61
2021/12/23 02:56:05;;;;;;;5.25;3.85;;;21.40;35.80;;;;;;5011765;28;20051;-60
2021/12/23 02:58:32;;;;;;;4.25;3.53;;;21.40;35.70;;;;;;5013144;28;20087;-61
2021/12/23 03:01:00;;;;;;;4.30;3.85;;;21.40;36.50;;;;;;5003703;28;20801;-60
2021/12/23 03:03:26;;;;;;;3.97;3.58;;;21.30;35.70;;;;;;5011037;28;20095;-60
2021/12/23 03:05:54;;;;;;;3.95;3.65;;;21.30;35.70;;;;;;5010867;28;20216;-60
2021/12/23 03:08:31;;;;;;;4.13;3.72;;;21.30;35.70;;;;;;5015181;28;20037;-60
2021/12/23 03:10:58;;;;;;;4.57;3.83;;;21.30;35.60;;;;;;5013912;28;20103;-60
2021/12/23 03:13:23;;;;;;;3.70;3.40;;;21.30;35.70;;;;;;5013458;28;27994;-59
2021/12/23 03:15:49;;;;;;;4.35;3.92;;;21.30;35.80;;;;;;5013035;28;20126;-59
2021/12/23 03:18:15;;;;;;;5.28;3.80;;;21.20;35.60;;;;;;5013740;28;20065;-61
2021/12/23 03:20:41;;;;;;;4.13;3.72;;;21.20;35.60;;;;;;5012197;28;20034;-60
2021/12/23 03:23:06;;;;;;;4.60;4.05;;;21.20;35.70;;;;;;5012320;28;20038;-61
2021/12/23 03:25:32;;;;;;;4.32;3.92;;;21.20;35.60;;;;;;5014632;28;20041;-59
2021/12/23 03:27:57;;;;;;;5.03;3.70;;;21.20;35.60;;;;;;5009838;28;35878;-60
2021/12/23 03:30:23;;;;;;;3.95;3.63;;;21.20;35.60;;;;;;5013647;28;20049;-60
2021/12/23 03:32:48;;;;;;;4.13;3.80;;;21.20;35.60;;;;;;5012782;28;20131;-61
2021/12/23 03:35:14;;;;;;;4.07;3.72;;;21.20;35.60;;;;;;5014881;28;20064;-61
2021/12/23 03:37:40;;;;;;;3.85;3.53;;;21.20;35.70;;;;;;5013241;28;20128;-60
2021/12/23 03:40:06;;;;;;;4.13;3.72;;;21.20;35.70;;;;;;5014134;28;20507;-60
2021/12/23 03:42:32;;;;;;;4.22;3.83;;;21.10;35.60;;;;;;5014175;28;30494;-60
2021/12/23 03:44:57;;;;;;;4.40;4.00;;;21.20;35.60;;;;;;5012007;28;20041;-60
2021/12/23 03:47:23;;;;;;;4.88;3.78;;;21.10;35.50;;;;;;5012501;28;20592;-61
2021/12/23 03:49:48;;;;;;;3.95;3.55;;;21.10;35.60;;;;;;5013433;28;20399;-60
2021/12/23 03:52:14;;;;;;;4.55;3.97;;;21.10;35.60;;;;;;5014667;28;20037;-61
2021/12/23 03:54:40;;;;;;;3.75;3.45;;;21.10;35.60;;;;;;5012769;28;20047;-60
2021/12/23 03:57:06;;;;;;;3.90;3.60;;;21.10;35.60;;;;;;5013110;28;21250;-61
2021/12/23 03:59:32;;;;;;;4.45;3.60;;;21.10;35.60;;;;;;5011168;28;20329;-60
2021/12/23 04:01:57;;;;;;;4.15;3.75;;;21.10;35.60;;;;;;5015362;28;20033;-60
2021/12/23 04:04:23;;;;;;;5.05;4.13;;;21.00;35.60;;;;;;5013425;28;20448;-60
2021/12/23 04:06:49;;;;;;;4.45;4.00;;;21.00;35.60;;;;;;5012622;28;20052;-59
2021/12/23 04:09:14;;;;;;;4.10;3.70;;;21.00;35.50;;;;;;5012360;28;25701;-61
2021/12/23 04:11:40;;;;;;;4.80;3.67;;;21.00;35.50;;;;;;5030502;28;20077;-61
2021/12/23 04:14:06;;;;;;;4.00;3.70;;;21.00;35.60;;;;;;5015139;28;20050;-60
2021/12/23 04:16:31;;;;;;;4.15;3.85;;;21.00;35.60;;;;;;5014743;28;20046;-60
2021/12/23 04:18:57;;;;;;;4.30;3.70;;;21.00;35.60;;;;;;5012400;28;20474;-60
2021/12/23 04:21:23;;;;;;;4.72;3.72;;;21.00;35.50;;;;;;5014915;28;20045;-60
2021/12/23 04:23:48;;;;;;;4.00;3.60;;;20.90;35.50;;;;;;5013511;28;30853;-60
2021/12/23 04:26:14;;;;;;;3.70;3.40;;;20.90;35.60;;;;;;5015173;28;20037;-61
2021/12/23 04:28:47;;;;;;;5.18;4.10;;;20.90;35.50;;;;;;5012281;28;20057;-60
2021/12/23 04:31:18;;;;;;;3.85;3.40;;;20.90;35.50;;;;;;5012979;28;20489;-60
2021/12/23 04:33:46;;;;;;;4.70;4.30;;;20.90;35.50;;;;;;5011459;28;20044;-60
2021/12/23 04:36:11;;;;;;;4.32;3.92;;;20.90;35.50;;;;;;5013352;28;20060;-60
2021/12/23 04:38:39;;;;;;;4.25;3.85;;;20.90;35.40;;;;;;5013460;28;31003;-60
2021/12/23 04:41:05;;;;;;;4.07;3.70;;;20.80;35.40;;;;;;5015304;28;20045;-61
2021/12/23 04:43:31;;;;;;;4.57;4.18;;;20.90;35.50;;;;;;5015021;28;20517;-60
2021/12/23 04:45:56;;;;;;;4.63;4.10;;;20.80;35.40;;;;;;5015523;28;20099;-60
2021/12/23 04:48:22;;;;;;;4.57;4.18;;;20.90;35.50;;;;;;5011727;28;20052;-60
2021/12/23 04:50:48;;;;;;;4.22;3.83;;;20.90;35.50;;;;;;5016500;28;20694;-60
2021/12/23 04:53:13;;;;;;;4.43;4.03;;;20.80;35.50;;;;;;5015244;28;33407;-60
2021/12/23 04:55:39;;;;;;;4.63;4.22;;;20.80;35.40;;;;;;5017214;28;20041;-60
2021/12/23 04:58:04;;;;;;;4.28;3.83;;;20.80;35.50;;;;;;5015560;28;20128;-59
2021/12/23 05:00:30;;;;;;;4.50;4.10;;;20.80;35.40;;;;;;5015989;28;20037;-60
2021/12/23 05:02:56;;;;;;;4.32;3.92;;;20.80;35.40;;;;;;5044960;28;20037;-61
2021/12/23 05:05:21;;;;;;;4.47;4.07;;;20.70;35.40;;;;;;5013986;28;35246;-61
2021/12/23 05:07:48;;;;;;;5.03;3.88;;;20.70;35.50;;;;;;5018904;28;20077;-61
2021/12/23 05:10:16;;;;;;;5.47;4.63;;;20.70;35.50;;;;;;5016185;28;20132;-60
2021/12/23 05:12:44;;;;;;;4.20;3.70;;;20.70;35.50;;;;;;5015566;28;20056;-60
2021/12/23 05:15:20;;;;;;;4.50;4.10;;;20.70;35.50;;;;;;5015262;28;20060;-60
2021/12/23 05:17:47;;;;;;;4.22;3.80;;;20.70;35.50;;;;;;5017779;28;20076;-60
2021/12/23 05:20:15;;;;;;;4.20;3.80;;;20.70;35.50;;;;;;5013616;28;33105;-60
2021/12/23 05:22:41;;;;;;;4.28;3.72;;;20.70;35.60;;;;;;5014962;28;20092;-60
2021/12/23 05:25:08;;;;;;;4.47;4.10;;;20.70;35.50;;;;;;5018346;28;20041;-60
2021/12/23 05:27:34;;;;;;;5.50;4.32;;;20.70;35.50;;;;;;5017553;28;20096;-60
2021/12/23 05:30:01;;;;;;;5.15;4.05;;;20.70;35.60;;;;;;5018655;28;20042;-60
2021/12/23 05:32:28;;;;;;;5.22;3.75;;;20.70;35.50;;;;;;5016788;28;20121;-60
2021/12/23 05:34:53;;;;;;;6.13;4.50;;;20.70;35.50;;;;;;5013089;28;26236;-59
2021/12/23 05:37:19;;;;;;;4.25;3.88;;;20.70;35.60;;;;;;5017620;28;20159;-61
2021/12/23 05:39:45;;;;;;;4.70;3.97;;;20.70;35.70;;;;;;5017736;28;20033;-60
2021/12/23 05:42:10;;;;;;;4.15;3.75;;;20.70;35.60;;;;;;5018640;28;20077;-61
2021/12/23 05:44:36;;;;;;;4.10;3.80;;;20.70;35.60;;;;;;5017630;28;20601;-61
2021/12/23 05:47:02;;;;;;;4.05;3.40;;;20.70;35.80;;;;;;5017922;28;20645;-61
2021/12/23 05:49:28;;;;;;;4.75;3.92;;;20.70;35.90;;;;;;5014085;28;20892;-61
2021/12/23 05:51:53;;;;;;;4.22;3.83;;;20.80;36.00;;;;;;5013143;28;20038;-60
2021/12/23 05:54:19;;;;;;;5.22;3.65;;;20.80;36.00;;;;;;5020128;28;20044;-61
2021/12/23 05:56:44;;;;;;;4.30;3.90;;;20.80;36.00;;;;;;5016020;28;20033;-61
2021/12/23 05:59:10;;;;;;;4.18;3.70;;;20.80;36.10;;;;;;5017757;28;20512;-60
2021/12/23 06:01:36;;;;;;;5.68;4.40;;;20.80;36.10;;;;;;5013509;28;30578;-61
2021/12/23 06:04:01;;;;;;;5.57;3.70;;;20.80;36.10;;;;;;5014309;28;20092;-60
2021/12/23 06:06:27;;;;;;;4.78;3.83;;;20.80;36.20;;;;;;5014914;28;20509;-60
2021/12/23 06:08:53;;;;;;;4.10;3.75;;;20.80;36.20;;;;;;5014108;28;20043;-60
2021/12/23 06:11:18;;;;;;;4.90;3.92;;;20.80;36.10;;;;;;5014182;28;20103;-61
2021/12/23 06:13:44;;;;;;;3.78;3.47;;;20.80;36.10;;;;;;5013692;28;20479;-60
2021/12/23 06:16:09;;;;;;;5.13;3.80;;;20.80;36.10;;;;;;5014633;28;28055;-60
2021/12/23 06:18:35;;;;;;;4.00;3.60;;;20.80;36.20;;;;;;5013001;28;20124;-61
2021/12/23 06:21:01;;;;;;;4.13;3.70;;;20.80;36.60;;;;;;5013798;28;20673;-60
2021/12/23 06:23:27;;;;;;;5.28;3.45;;;20.80;36.10;;;;;;5013810;28;20105;-61
2021/12/23 06:25:53;;;;;;;4.38;3.50;;;20.80;36.40;;;;;;5028117;28;20041;-60
2021/12/23 06:28:18;;;;;;;4.80;3.55;;;20.90;36.20;;;;;;5015879;28;20095;-60
2021/12/23 06:30:44;;;;;;;4.63;3.92;;;20.90;36.20;;;;;;5014461;28;34158;-61
2021/12/23 06:33:11;;;;;;;4.32;3.30;;;20.90;36.20;;;;;;5019314;28;20126;-59
2021/12/23 06:35:37;;;;;;;4.28;3.72;;;20.90;36.40;;;;;;5010622;28;20037;-60
2021/12/23 06:38:07;;;;;;;4.88;3.50;;;20.90;36.40;;;;;;5015950;28;20041;-60
2021/12/23 06:40:33;;;;;;;3.60;3.30;;;20.90;36.40;;;;;;5017013;28;20033;-59
2021/12/23 06:42:58;;;;;;;4.10;3.70;;;20.90;36.50;;;;;;5017793;28;20033;-60
2021/12/23 06:45:24;;;;;;;6.15;3.58;;;20.90;36.70;;;;;;5014404;28;23361;-60
2021/12/23 06:47:50;;;;;;;4.55;3.60;;;20.90;36.70;;;;;;5015686;28;20043;-59
2021/12/23 06:50:17;;;;;;;4.43;3.50;;;20.90;36.70;;;;;;5016277;28;20099;-59
2021/12/23 06:52:43;;;;;;;4.63;4.22;;;20.90;36.70;;;;;;5045841;28;20547;-60
2021/12/23 06:55:11;;;;;;;3.78;3.47;;;21.00;36.80;;;;;;5014958;28;20366;-60
2021/12/23 06:57:37;;;;;;;3.83;3.28;;;21.00;36.80;;;;;;5013500;28;20216;-61
2021/12/23 07:00:06;;;;;;;4.70;3.72;;;21.00;37.00;;;;;;5012250;28;33789;-61
2021/12/23 07:02:34;;;;;;;3.83;3.47;;;21.00;37.00;;;;;;5013037;28;20452;-61
2021/12/23 07:05:00;;;;;;;3.83;3.42;;;21.00;37.00;;;;;;5011728;28;20124;-60
2021/12/23 07:07:29;;;;;;;5.68;4.25;;;21.00;37.00;;;;;;4995760;28;20278;-60
2021/12/23 07:09:55;;;;;;;4.10;3.70;;;21.00;37.00;;;;;;5016080;28;20076;-60
2021/12/23 07:12:22;;;;;;;6.25;3.58;;;21.00;37.10;;;;;;5013227;28;25643;-60
2021/12/23 07:14:47;;;;;;;8.88;3.90;;;21.00;37.30;;;;;;5011668;28;20065;-61
2021/12/23 07:17:13;;;;;;;3.80;3.40;;;21.10;37.30;;;;;;5010663;28;20060;-60
2021/12/23 07:19:39;;;;;;;4.18;3.75;;;21.10;37.30;;;;;;5012521;28;20025;-59
2021/12/23 07:22:04;;;;;;;5.05;3.40;;;21.10;37.30;;;;;;5013210;28;20046;-60
2021/12/23 07:24:30;;;;;;;5.90;3.40;;;21.10;37.40;;;;;;5014866;28;20430;-59
2021/12/23 07:26:56;;;;;;;3.58;3.28;;;21.10;37.40;;;;;;5016121;28;31403;-59
2021/12/23 07:29:21;;;;;;;7.55;3.72;;;21.10;37.30;;;;;;5015805;28;20075;-59
2021/12/23 07:31:47;;;;;;;3.88;3.58;;;21.10;37.30;;;;;;5015728;28;20120;-61
2021/12/23 07:34:13;;;;;;;4.40;4.00;;;21.10;37.40;;;;;;5014536;28;20092;-61
2021/12/23 07:36:39;;;;;;;4.90;4.13;;;21.10;37.40;;;;;;5012351;28;20444;-59
2021/12/23 07:39:07;;;;;;;6.57;3.47;;;21.10;37.40;;;;;;5014888;28;20038;-59
2021/12/23 07:41:33;;;;;;;6.50;4.35;;;21.10;37.40;;;;;;5011727;28;33005;-61
2021/12/23 07:44:03;;;;;;;4.22;3.83;;;21.20;37.50;;;;;;5016069;28;20487;-60
2021/12/23 07:46:34;;;;;;;5.45;4.00;;;21.20;37.50;;;;;;5016558;28;21016;-60
2021/12/23 07:49:00;;;;;;;5.47;4.15;;;21.20;37.40;;;;;;5014992;28;20046;-61
2021/12/23 07:51:26;;;;;;;4.35;4.00;;;21.10;37.40;;;;;;5013662;28;20078;-60
2021/12/23 07:53:56;;;;;;;6.30;4.00;;;21.20;37.40;;;;;;5010041;28;20052;-60
2021/12/23 07:56:22;;;;;;;4.68;4.28;;;21.20;37.40;;;;;;5016947;28;30751;-60
2021/12/23 07:58:48;;;;;;;7.47;4.20;;;21.20;37.50;;;;;;5012547;28;20041;-59
2021/12/23 08:01:14;;;;;;;8.00;4.50;;;21.20;37.50;;;;;;5015416;28;20111;-61
2021/12/23 08:03:40;;;;;;;6.43;4.28;;;21.20;37.60;;;;;;5014851;28;20111;-60
2021/12/23 08:06:06;;;;;;;4.72;4.15;;;21.20;37.60;;;;;;5013492;28;20072;-60
2021/12/23 08:08:31;;;;;;;5.38;4.43;;;21.20;37.60;;;;;;5008346;28;20442;-60
2021/12/23 08:10:57;;;;;;;5.75;4.43;;;21.20;37.70;;;;;;5012762;28;20734;-60
2021/12/23 08:13:22;;;;;;;7.78;4.18;;;21.20;37.80;;;;;;5015580;28;20049;-60
2021/12/23 08:15:48;;;;;;;4.28;3.88;;;21.20;37.70;;;;;;5014024;28;20556;-58
2021/12/23 08:18:14;;;;;;;5.70;4.05;;;21.20;37.80;;;;;;5012928;28;20390;-59
2021/12/23 08:20:39;;;;;;;5.35;4.57;;;21.20;37.80;;;;;;5012295;28;20033;-58
2021/12/23 08:23:05;;;;;;;4.85;4.45;;;21.20;37.80;;;;;;5007777;28;21217;-59
2021/12/23 08:25:31;;;;;;;4.68;4.28;;;21.20;37.80;;;;;;5011940;28;20088;-60
2021/12/23 08:27:57;;;;;;;6.47;4.45;;;21.30;37.90;;;;;;5009865;28;20084;-60
2021/12/23 08:30:22;;;;;;;4.50;4.03;;;21.30;37.90;;;;;;5014432;28;20262;-60
2021/12/23 08:32:49;;;;;;;5.85;4.63;;;21.30;38.00;;;;;;5009537;28;20501;-60
2021/12/23 08:35:16;;;;;;;5.68;5.07;;;21.30;38.00;;;;;;5026800;28;20080;-60
2021/12/23 08:37:46;;;;;;;10.10;4.75;;;21.30;38.10;;;;;;5006896;28;33085;-59
2021/12/23 08:40:15;;;;;;;7.38;5.00;;;21.30;38.10;;;;;;5013373;28;20055;-58
2021/12/23 08:42:40;;;;;;;7.00;4.63;;;21.30;38.30;;;;;;5015051;28;20590;-60
2021/12/23 08:45:07;;;;;;;5.13;4.30;;;21.30;38.40;;;;;;5010693;28;20037;-60
2021/12/23 08:47:33;;;;;;;6.75;4.70;;;21.30;38.50;;;;;;5014688;28;20507;-60
2021/12/23 08:49:59;;;;;;;8.00;5.20;;;21.30;38.70;;;;;;5013474;28;20108;-58
2021/12/23 08:52:25;;;;;;;5.78;4.90;;;21.30;38.70;;;;;;5011100;28;33522;-59
2021/12/23 08:54:51;;;;;;;5.82;5.03;;;21.40;39.00;;;;;;5014344;28;20334;-60
2021/12/23 08:57:16;;;;;;;5.85;5.32;;;21.40;39.00;;;;;;5013370;28;20481;-60
2021/12/23 08:59:42;;;;;;;8.95;5.25;;;21.40;39.10;;;;;;5014523;28;20048;-60
2021/12/23 09:02:08;;;;;;;6.05;5.45;;;21.40;39.20;;;;;;5014284;28;20123;-59
2021/12/23 09:04:34;;;;;;;5.80;4.93;;;21.40;39.30;;;;;;5027415;28;31325;-59
2021/12/23 09:07:00;;;;;;;7.75;5.35;;;21.40;39.30;;;;;;5013924;28;20041;-59
2021/12/23 09:09:30;;;;;;;6.80;5.30;;;21.40;39.30;;;;;;5012267;28;20658;-60
2021/12/23 09:11:55;;;;;;;6.63;5.50;;;21.40;39.40;;;;;;5010674;28;20046;-61
2021/12/23 09:14:21;;;;;;;7.22;5.82;;;21.40;39.40;;;;;;5011994;28;20049;-60
2021/12/23 09:16:47;;;;;;;7.30;5.63;;;21.40;39.60;;;;;;5010877;28;20107;-60
2021/12/23 09:19:14;;;;;;;6.75;5.40;;;21.40;39.60;;;;;;5013949;28;25531;-59
2021/12/23 09:21:40;;;;;;;7.10;5.80;;;21.40;39.60;;;;;;5025049;28;20122;-60
2021/12/23 09:24:06;;;;;;;6.20;5.28;;;21.50;39.80;;;;;;5014949;28;20432;-60
2021/12/23 09:26:36;;;;;;;6.65;5.95;;;21.40;39.90;;;;;;5012543;28;20581;-58
2021/12/23 09:29:14;;;;;;;11.43;10.23;;;21.40;39.90;;;;;;5013813;28;20068;-60
2021/12/23 09:32:52;;;;;;;25.13;22.70;;;21.40;40.10;;;;;;5012759;28;20056;-59
2021/12/23 09:34:35;;;;;;;25.33;23.00;;;21.50;40.30;;;;;;4996940;28;36538;-59
2021/12/23 09:37:00;;;;;;;24.02;21.83;;;21.40;40.70;;;;;;5015895;28;20474;-60
2021/12/23 09:39:27;;;;;;;25.45;23.05;;;21.50;40.80;;;;;;5014852;28;20504;-60
2021/12/23 09:41:52;;;;;;;34.50;31.23;;;21.50;41.00;;;;;;5016735;28;20069;-59
2021/12/23 09:44:18;;;;;;;67.85;60.97;;;21.50;41.20;;;;;;5017694;28;20069;-60
2021/12/23 09:46:44;;;;;;;67.03;60.75;;;21.50;41.80;;;;;;5010933;28;28367;-60
2021/12/23 09:49:10;;;;;;;87.20;78.82;;;21.60;42.00;;;;;;5017506;28;20049;-60
2021/12/23 09:51:35;;;;;;;103.13;93.18;;;21.60;42.30;;;;;;5013924;28;20049;-60
2021/12/23 09:54:08;;;;;;;124.10;111.72;;;21.60;42.80;;;;;;5019404;28;20049;-59
2021/12/23 09:56:34;;;;;;;134.82;121.60;;;21.60;43.50;;;;;;5014584;28;20481;-59
2021/12/23 09:59:02;;;;;;;141.23;127.63;;;21.60;43.60;;;;;;5018220;28;20065;-60
2021/12/23 10:01:30;;;;;;;152.55;137.93;;;21.60;44.00;;;;;;5014153;28;33497;-59
2021/12/23 10:03:56;;;;;;;153.82;139.27;;;21.70;44.30;;;;;;5013832;28;20049;-60
2021/12/23 10:06:26;;;;;;;158.52;143.55;;;21.70;44.30;;;;;;5018894;28;20049;-59
2021/12/23 10:08:53;;;;;;;165.70;149.85;;;21.70;44.50;;;;;;5012368;28;20114;-58
2021/12/23 10:11:32;;;;;;;173.70;157.93;;;21.70;44.70;;;;;;5016850;28;20049;-58
2021/12/23 10:30:55;;;;;;;227.05;207.20;;;21.80;46.40;;;;;;5014723;28;25556;-60
2021/12/23 10:38:59;;;;;;;254.73;233.10;;;21.70;46.10;;;;;;5014544;28;20045;-59
2021/12/23 10:41:25;;;;;;;;;;;21.80;46.20;;;;;;5015498;28;20037;-60
2021/12/23 10:44:01;;;;;;;273.35;250.07;;;21.80;46.80;;;;;;5013162;28;30895;-60
2021/12/23 10:46:35;;;;;;;285.15;261.05;;;21.80;46.60;;;;;;5013390;28;20037;-59
2021/12/23 10:52:03;;;;;;;303.10;277.30;;;21.80;47.30;;;;;;5016396;28;20052;-60
2021/12/23 11:00:28;;;;;;;316.93;290.10;;;21.80;47.60;;;;;;5015861;28;20128;-59
2021/12/23 11:03:11;;;;;;;325.67;297.83;;;21.80;47.80;;;;;;5013545;28;20496;-60
2021/12/23 11:05:45;;;;;;;319.80;291.90;;;21.90;48.00;;;;;;5012454;28;20053;-60
2021/12/23 11:08:21;;;;;;;318.25;291.10;;;21.90;48.00;;;;;;5013335;28;20041;-59
2021/12/23 11:31:36;;;;;;;256.98;234.63;;;21.90;48.40;;;;;;5005230;28;20506;-60
2021/12/23 11:38:58;;;;;;;209.65;191.13;;;21.90;47.90;;;;;;5015603;28;20041;-60
2021/12/23 11:43:58;;;;;;;179.00;162.63;;;21.90;47.10;;;;;;5014072;28;20571;-59
2021/12/23 11:46:43;;;;;;;168.13;153.10;;;21.90;46.70;;;;;;5013283;28;20077;-60
2021/12/23 11:49:12;;;;;;;147.60;134.02;;;21.90;46.60;;;;;;5007819;28;20228;-60
2021/12/23 11:54:11;;;;;;;131.68;119.93;;;21.90;46.40;;;;;;5013038;28;32916;-60
2021/12/23 11:56:50;;;;;;;128.02;116.22;;;21.90;46.30;;;;;;5026649;28;20053;-60
2021/12/23 11:59:17;;;;;;;119.82;109.03;;;21.90;46.10;;;;;;5012702;28;20052;-60
2021/12/23 12:01:48;;;;;;;112.45;102.30;;;21.90;45.90;;;;;;5014375;28;20527;-60
2021/12/23 12:04:23;;;;;;;111.53;101.32;;;21.90;45.70;;;;;;5014675;28;20042;-60
2021/12/23 12:06:50;;;;;;;107.18;97.22;;;21.90;45.40;;;;;;5027058;28;20045;-60
2021/12/23 12:09:26;;;;;;;100.70;91.18;;;21.80;45.20;;;;;;5014369;28;30661;-60
2021/12/23 12:12:06;;;;;;;96.00;87.20;;;21.90;45.20;;;;;;5012519;28;20405;-60
2021/12/23 12:14:34;;;;;;;91.73;83.17;;;21.90;44.80;;;;;;5014902;28;20156;-60
2021/12/23 12:17:25;;;;;;;87.88;79.82;;;21.80;44.70;;;;;;5013811;28;20061;-60
2021/12/23 12:19:57;;;;;;;83.85;76.03;;;21.80;44.30;;;;;;5013055;28;20053;-60
2021/12/23 12:22:44;;;;;;;77.35;69.95;;;21.80;44.40;;;;;;5009944;28;20042;-59
2021/12/23 12:25:36;;;;;;;74.57;67.45;;;21.80;44.10;;;;;;5024361;28;20041;-60
2021/12/23 12:28:02;;;;;;;74.10;67.20;;;21.80;44.10;;;;;;5010719;28;20493;-60
2021/12/23 12:30:42;;;;;;;69.78;63.15;;;21.80;44.10;;;;;;5011887;28;20078;-60
2021/12/23 12:33:11;;;;;;;68.57;62.08;;;21.80;44.30;;;;;;5012117;28;20037;-60
2021/12/23 12:35:39;;;;;;;65.65;59.15;;;21.80;44.30;;;;;;5011940;28;26047;-59
2021/12/23 12:38:20;;;;;;;60.47;54.78;;;21.80;44.30;;;;;;5014443;28;20060;-60
2021/12/23 12:41:13;;;;;;;61.05;55.38;;;21.80;44.30;;;;;;5009421;28;20042;-60
2021/12/23 12:43:59;;;;;;;56.63;51.33;;;21.80;44.00;;;;;;5013998;28;20500;-60
2021/12/23 12:46:34;;;;;;;54.63;49.50;;;21.80;44.00;;;;;;5015227;28;20080;-61
2021/12/23 12:49:08;;;;;;;53.22;48.25;;;21.80;44.00;;;;;;5015633;28;20041;-60
2021/12/23 12:51:39;;;;;;;52.00;46.92;;;21.80;43.80;;;;;;5015090;28;30064;-61
2021/12/23 12:54:13;;;;;;;51.33;46.63;;;21.80;43.60;;;;;;5012268;28;21017;-60
2021/12/23 12:56:51;;;;;;;49.20;44.60;;;21.80;43.40;;;;;;5014821;28;20407;-60
2021/12/23 12:59:22;;;;;;;45.35;41.05;;;21.80;43.20;;;;;;5010754;28;20551;-60
2021/12/23 13:01:51;;;;;;;45.45;41.10;;;21.80;43.30;;;;;;5014406;28;20068;-60
2021/12/23 13:04:33;;;;;;;44.72;40.50;;;21.70;43.10;;;;;;5010053;28;33383;-60
2021/12/23 13:07:22;;;;;;;41.92;37.97;;;21.70;42.90;;;;;;5013321;28;20180;-60
2021/12/23 13:09:56;;;;;;;40.47;36.70;;;21.70;42.70;;;;;;5009979;28;20034;-60
2021/12/23 13:12:46;;;;;;;38.40;34.67;;;21.70;42.60;;;;;;5015855;28;20091;-60
2021/12/23 13:15:22;;;;;;;38.22;34.65;;;21.70;42.50;;;;;;5015027;28;20041;-59
2021/12/23 13:17:59;;;;;;;37.97;34.25;;;21.60;42.10;;;;;;5031144;28;33232;-60
2021/12/23 13:20:36;;;;;;;36.45;32.95;;;21.60;42.20;;;;;;5015897;28;20124;-60
2021/12/23 13:23:12;;;;;;;35.65;32.25;;;21.60;42.00;;;;;;5019296;28;20053;-60
2021/12/23 13:25:55;;;;;;;33.42;30.23;;;21.60;41.90;;;;;;5011405;28;20251;-60
2021/12/23 13:28:25;;;;;;;32.70;29.63;;;21.60;41.80;;;;;;5016119;28;20279;-60
2021/12/23 13:30:52;;;;;;;32.25;29.25;;;21.60;41.80;;;;;;5012462;28;20060;-60
2021/12/23 13:33:18;;;;;;;29.70;26.85;;;21.60;41.80;;;;;;5007750;28;27957;-59
2021/12/23 13:35:43;;;;;;;28.98;26.17;;;21.60;41.70;;;;;;5013265;28;20066;-60
2021/12/23 13:38:20;;;;;;;28.13;25.58;;;21.50;41.60;;;;;;5014258;28;20470;-60
2021/12/23 13:40:47;;;;;;;28.83;26.10;;;21.60;41.50;;;;;;5015198;28;20071;-60
2021/12/23 13:43:28;;;;;;;26.80;24.30;;;21.50;41.50;;;;;;5013180;28;20034;-60
2021/12/23 13:46:06;;;;;;;25.20;22.90;;;21.50;41.40;;;;;;5019226;28;30840;-60
2021/12/23 13:48:32;;;;;;;24.38;21.98;;;21.50;41.50;;;;;;5017253;28;20045;-60
2021/12/23 13:50:58;;;;;;;23.52;21.15;;;21.50;41.60;;;;;;5014547;28;20141;-60
2021/12/23 13:53:24;;;;;;;23.10;20.98;;;21.50;41.50;;;;;;5017749;28;20041;-60
2021/12/23 13:55:50;;;;;;;23.13;20.92;;;21.50;41.60;;;;;;5015346;28;20516;-60